createdAt,value
2018-08-22T00:02:08.732Z,18.10
2018-08-22T00:04:37.354Z,18.09
2018-08-22T00:07:05.988Z,18.00
2018-08-22T00:09:34.918Z,17.99
2018-08-22T00:12:03.768Z,17.98
2018-08-22T00:14:32.955Z,17.97
2018-08-22T00:17:01.951Z,17.85
2018-08-22T00:19:30.740Z,17.93
2018-08-22T00:21:59.570Z,17.75
2018-08-22T00:24:28.761Z,17.79
2018-08-22T00:26:57.709Z,17.71
2018-08-22T00:29:26.587Z,17.69
2018-08-22T00:31:55.330Z,17.65
2018-08-22T00:34:24.103Z,17.57
2018-08-22T00:36:52.810Z,17.76
2018-08-22T00:39:22.018Z,17.88
2018-08-22T00:41:51.090Z,18.10
2018-08-22T00:44:20.139Z,18.00
2018-08-22T00:46:49.136Z,17.83
2018-08-22T00:49:18.074Z,17.82
2018-08-22T00:51:47.124Z,17.86
2018-08-22T00:54:16.016Z,17.90
2018-08-22T00:56:45.263Z,17.85
2018-08-22T00:59:14.126Z,17.89
2018-08-22T01:01:42.981Z,17.96
2018-08-22T01:04:11.715Z,17.80
2018-08-22T01:06:40.408Z,17.76
2018-08-22T01:09:09.530Z,17.86
2018-08-22T01:11:38.388Z,17.66
2018-08-22T01:14:07.413Z,17.55
2018-08-22T01:16:36.214Z,17.53
2018-08-22T01:19:04.891Z,17.50
2018-08-22T01:21:33.757Z,17.48
2018-08-22T01:24:02.847Z,17.37
2018-08-22T01:26:31.619Z,17.51
2018-08-22T01:29:00.682Z,17.50
2018-08-22T01:31:29.466Z,17.56
2018-08-22T01:33:58.214Z,17.51
2018-08-22T01:36:27.154Z,17.60
2018-08-22T01:38:55.905Z,17.74
2018-08-22T01:41:24.581Z,17.80
2018-08-22T01:43:53.357Z,17.72
2018-08-22T01:46:22.211Z,17.50
2018-08-22T01:48:51.107Z,17.41
2018-08-22T01:51:19.960Z,17.42
2018-08-22T01:53:49.114Z,17.38
2018-08-22T01:56:18.060Z,17.47
2018-08-22T01:58:47.029Z,17.58
2018-08-22T02:01:16.012Z,17.49
2018-08-22T02:03:45.255Z,17.40
2018-08-22T02:06:13.987Z,17.42
2018-08-22T02:08:42.861Z,17.46
2018-08-22T02:11:11.859Z,17.40
2018-08-22T02:13:40.600Z,17.42
2018-08-22T02:16:09.274Z,17.42
2018-08-22T02:18:37.897Z,17.53
2018-08-22T02:21:06.950Z,17.36
2018-08-22T02:23:35.657Z,17.36
2018-08-22T02:26:04.783Z,17.22
2018-08-22T02:28:33.519Z,17.10
2018-08-22T02:31:02.554Z,17.02
2018-08-22T02:33:31.431Z,16.93
2018-08-22T02:36:00.226Z,16.95
2018-08-22T02:38:29.402Z,16.74
2018-08-22T02:40:58.633Z,16.75
2018-08-22T02:43:27.389Z,16.93
2018-08-22T02:45:56.123Z,16.93
2018-08-22T02:48:24.894Z,17.02
2018-08-22T02:50:54.535Z,16.87
2018-08-22T02:53:23.674Z,16.82
2018-08-22T02:55:52.752Z,16.65
2018-08-22T02:58:21.862Z,16.60
2018-08-22T03:00:50.858Z,16.76
2018-08-22T03:03:20.043Z,16.81
2018-08-22T03:05:48.843Z,16.84
2018-08-22T03:08:17.894Z,17.01
2018-08-22T03:10:46.891Z,17.02
2018-08-22T03:13:15.956Z,16.92
2018-08-22T03:15:44.698Z,17.10
2018-08-22T03:18:13.437Z,17.02
2018-08-22T03:20:42.176Z,17.08
2018-08-22T03:23:10.788Z,17.35
2018-08-22T03:25:39.612Z,17.23
2018-08-22T03:28:08.546Z,17.27
2018-08-22T03:30:37.509Z,17.14
2018-08-22T03:33:06.612Z,16.86
2018-08-22T03:35:35.651Z,17.10
2018-08-22T03:38:04.605Z,17.04
2018-08-22T03:40:33.428Z,16.82
2018-08-22T03:43:02.463Z,16.70
2018-08-22T03:45:31.387Z,16.66
2018-08-22T03:48:00.247Z,16.77
2018-08-22T03:50:29.208Z,16.98
2018-08-22T03:52:57.962Z,16.99
2018-08-22T03:55:26.857Z,16.79
2018-08-22T03:57:56.048Z,16.76
2018-08-22T04:00:24.906Z,16.91
2018-08-22T04:02:53.926Z,16.73
2018-08-22T04:05:22.679Z,16.76
2018-08-22T04:07:51.579Z,16.87
2018-08-22T04:10:20.473Z,16.99
2018-08-22T04:12:49.299Z,16.99
2018-08-22T04:15:18.198Z,17.08
2018-08-22T04:17:47.029Z,17.16
2018-08-22T04:20:16.142Z,17.24
2018-08-22T04:22:45.026Z,17.25
2018-08-22T04:25:13.937Z,17.28
2018-08-22T04:27:42.888Z,17.31
2018-08-22T04:30:11.623Z,17.51
2018-08-22T04:32:40.458Z,17.57
2018-08-22T04:35:09.417Z,17.46
2018-08-22T04:37:38.287Z,17.60
2018-08-22T04:40:07.338Z,17.83
2018-08-22T04:42:36.419Z,17.94
2018-08-22T04:45:05.326Z,17.93
2018-08-22T04:47:34.350Z,18.00
2018-08-22T04:50:03.292Z,17.99
2018-08-22T04:52:32.135Z,18.07
2018-08-22T04:55:01.098Z,18.08
2018-08-22T04:57:30.282Z,18.27
2018-08-22T04:59:59.029Z,18.56
2018-08-22T05:02:27.902Z,18.64
2018-08-22T05:04:57.000Z,18.74
2018-08-22T05:07:26.011Z,18.79
2018-08-22T05:09:54.621Z,18.73
2018-08-22T05:12:23.567Z,18.97
2018-08-22T05:14:52.399Z,19.07
2018-08-22T05:17:21.274Z,19.14
2018-08-22T05:19:50.215Z,19.30
2018-08-22T05:22:19.469Z,19.28
2018-08-22T05:24:48.435Z,19.33
2018-08-22T05:27:17.627Z,19.45
2018-08-22T05:29:46.639Z,19.46
2018-08-22T05:32:15.427Z,19.32
2018-08-22T05:34:44.282Z,19.71
2018-08-22T05:37:13.137Z,19.87
2018-08-22T05:39:42.055Z,19.91
2018-08-22T05:42:11.154Z,19.84
2018-08-22T05:44:40.163Z,19.93
2018-08-22T05:47:09.430Z,20.20
2018-08-22T05:49:38.794Z,20.17
2018-08-22T05:52:14.381Z,20.14
2018-08-22T05:54:43.181Z,20.26
2018-08-22T05:57:12.073Z,20.14
2018-08-22T05:59:41.019Z,20.30
2018-08-22T06:02:10.403Z,20.42
2018-08-22T06:04:39.087Z,20.60
2018-08-22T06:07:07.952Z,20.70
2018-08-22T06:09:37.046Z,20.85
2018-08-22T06:12:06.135Z,21.08
2018-08-22T06:14:35.200Z,20.96
2018-08-22T06:17:04.281Z,21.11
2018-08-22T06:19:32.963Z,21.17
2018-08-22T06:22:02.095Z,21.45
2018-08-22T06:24:31.280Z,21.66
2018-08-22T06:27:00.230Z,21.90
2018-08-22T06:29:29.603Z,22.06
2018-08-22T06:31:58.472Z,22.19
2018-08-22T06:34:27.145Z,22.36
2018-08-22T06:36:55.857Z,22.40
2018-08-22T06:39:25.001Z,22.56
2018-08-22T06:41:53.781Z,22.75
2018-08-22T06:44:22.595Z,22.98
2018-08-22T06:46:51.961Z,22.83
2018-08-22T06:49:20.786Z,22.92
2018-08-22T06:51:50.029Z,23.07
2018-08-22T06:54:18.790Z,23.28
2018-08-22T06:56:47.677Z,23.27
2018-08-22T06:59:16.383Z,23.23
2018-08-22T07:01:45.277Z,23.33
2018-08-22T07:04:14.109Z,23.37
2018-08-22T07:06:42.910Z,23.45
2018-08-22T07:09:12.535Z,23.64
2018-08-22T07:11:41.231Z,23.77
2018-08-22T07:14:10.765Z,23.89
2018-08-22T07:16:39.823Z,24.13
2018-08-22T07:19:08.871Z,24.17
2018-08-22T07:21:41.015Z,24.25
2018-08-22T07:24:09.897Z,24.57
2018-08-22T07:26:38.835Z,24.64
2018-08-22T07:29:07.612Z,24.78
2018-08-22T07:31:36.255Z,24.61
2018-08-22T07:34:05.246Z,24.78
2018-08-22T07:36:34.095Z,25.06
2018-08-22T07:39:02.867Z,25.07
2018-08-22T07:41:31.635Z,24.97
2018-08-22T07:44:00.359Z,24.96
2018-08-22T07:46:29.162Z,24.98
2018-08-22T07:48:58.188Z,25.04
2018-08-22T07:51:27.443Z,25.03
2018-08-22T07:53:56.732Z,25.22
2018-08-22T07:56:25.986Z,25.35
2018-08-22T08:01:28.195Z,25.92
2018-08-22T08:03:57.287Z,26.02
2018-08-22T08:06:26.286Z,26.12
2018-08-22T08:08:55.083Z,25.82
2018-08-22T08:11:24.023Z,26.25
2018-08-22T08:13:52.740Z,26.38
2018-08-22T08:16:21.464Z,26.20
2018-08-22T08:18:50.442Z,26.32
2018-08-22T08:21:19.324Z,26.66
2018-08-22T08:23:48.282Z,26.76
2018-08-22T08:26:17.366Z,26.71
2018-08-22T08:28:46.355Z,26.88
2018-08-22T08:31:15.266Z,26.85
2018-08-22T08:33:44.044Z,27.10
2018-08-22T08:36:13.080Z,27.17
2018-08-22T08:38:42.531Z,27.22
2018-08-22T08:41:11.334Z,27.12
2018-08-22T08:43:41.318Z,27.32
2018-08-22T08:46:10.034Z,27.50
2018-08-22T08:48:38.827Z,27.69
2018-08-22T08:51:07.807Z,27.67
2018-08-22T08:53:36.678Z,27.83
2018-08-22T08:56:05.551Z,27.87
2018-08-22T08:58:34.390Z,27.97
2018-08-22T09:01:03.652Z,28.20
2018-08-22T09:03:32.367Z,28.28
2018-08-22T09:06:01.516Z,28.46
2018-08-22T09:08:30.310Z,28.35
2018-08-22T09:10:59.199Z,28.56
2018-08-22T09:13:28.068Z,28.78
2018-08-22T09:15:56.769Z,28.71
2018-08-22T09:18:25.476Z,28.93
2018-08-22T09:20:54.158Z,29.20
2018-08-22T09:23:22.883Z,29.31
2018-08-22T09:25:51.693Z,29.28
2018-08-22T09:28:20.721Z,29.33
2018-08-22T09:30:49.759Z,29.64
2018-08-22T09:33:18.609Z,29.65
2018-08-22T09:35:47.546Z,29.75
2018-08-22T09:38:16.406Z,29.74
2018-08-22T09:40:45.462Z,29.55
2018-08-22T09:43:14.294Z,29.98
2018-08-22T09:45:43.369Z,30.12
2018-08-22T09:48:12.357Z,30.37
2018-08-22T09:50:41.104Z,30.46
2018-08-22T09:53:09.994Z,30.40
2018-08-22T09:55:38.722Z,30.55
2018-08-22T09:58:07.832Z,30.77
2018-08-22T10:00:42.084Z,30.89
2018-08-22T10:03:11.013Z,31.17
2018-08-22T10:05:39.714Z,31.01
2018-08-22T10:08:09.211Z,31.70
2018-08-22T10:10:38.325Z,31.63
2018-08-22T10:13:07.234Z,31.82
2018-08-22T10:15:36.013Z,31.73
2018-08-22T10:18:05.100Z,32.00
2018-08-22T10:20:33.992Z,32.18
2018-08-22T10:23:03.135Z,31.86
2018-08-22T10:25:31.792Z,32.24
2018-08-22T10:28:00.378Z,32.23
2018-08-22T10:30:29.010Z,32.27
2018-08-22T10:32:57.964Z,32.38
2018-08-22T10:35:26.892Z,33.07
2018-08-22T10:37:55.795Z,32.82
2018-08-22T10:40:24.633Z,32.90
2018-08-22T10:42:53.454Z,33.11
2018-08-22T10:45:22.281Z,33.21
2018-08-22T10:47:51.496Z,33.53
2018-08-22T10:50:20.251Z,33.87
2018-08-22T10:52:49.205Z,34.47
2018-08-22T10:55:18.064Z,34.66
2018-08-22T10:57:47.018Z,34.64
2018-08-22T11:00:15.711Z,33.37
2018-08-22T11:02:44.527Z,33.89
2018-08-22T11:05:13.470Z,33.42
2018-08-22T11:07:42.639Z,33.52
2018-08-22T11:10:11.614Z,34.05
2018-08-22T11:12:40.731Z,34.48
2018-08-22T11:15:09.567Z,34.66
2018-08-22T11:17:38.615Z,34.59
2018-08-22T11:20:07.600Z,34.80
2018-08-22T11:22:47.429Z,35.18
2018-08-22T11:25:27.298Z,35.04
2018-08-22T11:28:07.009Z,35.40
2018-08-22T11:30:47.095Z,35.02
2018-08-22T11:33:26.895Z,35.76
2018-08-22T11:35:54.348Z,35.98
2018-08-22T11:38:23.261Z,36.32
2018-08-22T11:40:52.103Z,36.65
2018-08-22T11:43:21.443Z,36.06
2018-08-22T11:45:50.343Z,37.13
2018-08-22T11:48:19.566Z,37.02
2018-08-22T11:50:48.274Z,37.36
2018-08-22T11:53:17.366Z,35.82
2018-08-22T11:55:46.155Z,36.67
2018-08-22T11:58:15.157Z,36.66
2018-08-22T12:00:44.520Z,37.08
2018-08-22T12:03:13.267Z,36.72
2018-08-22T12:05:41.910Z,37.37
2018-08-22T12:08:11.672Z,37.70
2018-08-22T12:10:40.998Z,37.69
2018-08-22T12:13:10.063Z,37.85
2018-08-22T12:15:38.935Z,37.48
2018-08-22T12:18:07.862Z,37.65
2018-08-22T12:20:37.004Z,37.80
2018-08-22T12:23:05.944Z,36.22
2018-08-22T12:25:35.168Z,36.29
2018-08-22T12:28:04.305Z,36.38
2018-08-22T12:30:33.167Z,37.30
2018-08-22T12:33:02.033Z,37.49
2018-08-22T12:35:30.774Z,37.43
2018-08-22T12:37:59.426Z,37.57
2018-08-22T12:40:28.165Z,38.06
2018-08-22T12:42:56.855Z,38.55
2018-08-22T12:45:25.908Z,37.39
2018-08-22T12:47:54.844Z,37.64
2018-08-22T12:50:23.691Z,38.87
2018-08-22T12:52:52.620Z,39.15
2018-08-22T12:55:21.666Z,38.80
2018-08-22T12:57:50.669Z,39.15
2018-08-22T13:00:19.386Z,39.19
2018-08-22T13:02:48.238Z,39.78
2018-08-22T13:05:17.419Z,39.76
2018-08-22T13:07:46.097Z,39.95
2018-08-22T13:10:14.887Z,39.71
2018-08-22T13:12:43.636Z,40.20
2018-08-22T13:15:12.773Z,40.57
2018-08-22T13:17:41.939Z,40.10
2018-08-22T13:20:11.110Z,39.43
2018-08-22T13:22:39.974Z,39.86
2018-08-22T13:25:09.022Z,39.76
2018-08-22T13:27:37.902Z,39.91
2018-08-22T13:30:07.529Z,40.34
2018-08-22T13:32:36.617Z,40.12
2018-08-22T13:35:05.610Z,40.09
2018-08-22T13:37:36.176Z,40.43
2018-08-22T13:40:05.333Z,40.66
2018-08-22T13:42:34.297Z,40.42
2018-08-22T13:45:03.157Z,41.17
2018-08-22T13:47:32.006Z,41.00
2018-08-22T13:50:01.166Z,40.98
2018-08-22T13:52:30.092Z,40.99
2018-08-22T13:54:59.175Z,40.85
2018-08-22T13:57:28.066Z,40.60
2018-08-22T13:59:56.788Z,40.51
2018-08-22T14:02:26.247Z,40.43
2018-08-22T14:04:55.325Z,40.25
2018-08-22T14:07:24.122Z,40.36
2018-08-22T14:09:53.052Z,40.32
2018-08-22T14:12:22.371Z,40.05
2018-08-22T14:14:51.096Z,40.14
2018-08-22T14:17:19.846Z,39.71
2018-08-22T14:19:48.776Z,39.98
2018-08-22T14:22:17.600Z,39.82
2018-08-22T14:24:46.580Z,40.11
2018-08-22T14:27:15.918Z,40.32
2018-08-22T14:29:45.068Z,40.42
2018-08-22T14:32:14.078Z,40.78
2018-08-22T14:34:42.854Z,40.36
2018-08-22T14:37:11.690Z,40.21
2018-08-22T14:39:40.881Z,40.15
2018-08-22T14:42:09.779Z,40.63
2018-08-22T14:44:38.704Z,40.96
2018-08-22T14:47:07.458Z,40.96
2018-08-22T14:49:36.226Z,40.90
2018-08-22T14:52:05.093Z,40.21
2018-08-22T14:54:34.052Z,39.27
2018-08-22T14:57:02.991Z,39.93
2018-08-22T14:59:32.190Z,40.14
2018-08-22T15:02:01.260Z,39.88
2018-08-22T15:04:30.206Z,39.73
2018-08-22T15:06:58.993Z,39.30
2018-08-22T15:09:28.147Z,38.56
2018-08-22T15:11:56.783Z,38.11
2018-08-22T15:14:25.616Z,37.80
2018-08-22T15:16:54.385Z,37.28
2018-08-22T15:19:23.646Z,37.12
2018-08-22T15:21:52.411Z,36.60
2018-08-22T15:24:21.135Z,36.11
2018-08-22T15:26:50.211Z,35.86
2018-08-22T15:29:19.147Z,35.00
2018-08-22T15:31:48.092Z,35.08
2018-08-22T15:34:16.844Z,34.96
2018-08-22T15:36:45.662Z,34.60
2018-08-22T15:39:14.543Z,34.28
2018-08-22T15:41:43.237Z,33.93
2018-08-22T15:44:12.071Z,34.33
2018-08-22T15:46:41.074Z,34.40
2018-08-22T15:49:10.110Z,34.47
2018-08-22T15:51:38.934Z,34.37
2018-08-22T15:54:10.932Z,34.68
2018-08-22T15:56:41.089Z,34.83
2018-08-22T15:59:10.952Z,35.31
2018-08-22T16:01:40.075Z,35.66
2018-08-22T16:04:09.548Z,35.90
2018-08-22T16:06:38.613Z,35.84
2018-08-22T16:09:15.599Z,35.63
2018-08-22T16:11:44.895Z,35.62
2018-08-22T16:14:13.723Z,35.80
2018-08-22T16:16:42.797Z,35.74
2018-08-22T16:19:11.823Z,36.28
2018-08-22T16:21:40.695Z,35.98
2018-08-22T16:24:09.585Z,36.11
2018-08-22T16:26:38.300Z,36.20
2018-08-22T16:29:07.133Z,36.21
2018-08-22T16:31:40.081Z,35.88
2018-08-22T16:34:11.404Z,35.39
2018-08-22T16:36:40.601Z,35.49
2018-08-22T16:39:09.871Z,35.37
2018-08-22T16:41:39.102Z,35.08
2018-08-22T16:44:08.259Z,34.64
2018-08-22T16:46:36.983Z,34.36
2018-08-22T16:49:05.886Z,34.04
2018-08-22T16:51:34.820Z,34.17
2018-08-22T16:54:08.596Z,33.85
2018-08-22T16:56:37.384Z,33.64
2018-08-22T16:59:12.813Z,33.17
2018-08-22T17:01:45.499Z,32.85
2018-08-22T17:04:14.240Z,32.53
2018-08-22T17:06:43.133Z,32.27
2018-08-22T17:09:12.408Z,31.62
2018-08-22T17:11:41.678Z,31.48
2018-08-22T17:14:10.659Z,31.26
2018-08-22T17:16:39.617Z,30.74
2018-08-22T17:19:08.473Z,30.38
2018-08-22T17:21:37.254Z,30.15
2018-08-22T17:24:06.450Z,29.76
2018-08-22T17:26:35.187Z,29.53
2018-08-22T17:29:03.827Z,29.52
2018-08-22T17:31:32.617Z,29.10
2018-08-22T17:34:03.339Z,28.82
2018-08-22T17:36:32.099Z,28.86
2018-08-22T17:39:01.746Z,28.56
2018-08-22T17:41:31.255Z,28.59
2018-08-22T17:44:10.994Z,28.44
2018-08-22T17:46:45.607Z,28.31
2018-08-22T17:49:14.532Z,28.13
2018-08-22T17:52:16.515Z,28.17
2018-08-22T17:54:45.610Z,27.92
2018-08-22T17:57:22.824Z,27.84
2018-08-22T17:59:51.539Z,27.70
2018-08-22T18:02:20.201Z,27.59
2018-08-22T18:05:00.807Z,27.57
2018-08-22T18:07:29.992Z,27.16
2018-08-22T18:09:58.889Z,27.35
2018-08-22T18:12:28.598Z,27.28
2018-08-22T18:14:58.626Z,27.13
2018-08-22T18:17:27.580Z,27.10
2018-08-22T18:19:56.808Z,27.06
2018-08-22T18:22:29.603Z,27.12
2018-08-22T18:24:58.848Z,26.88
2018-08-22T18:27:28.057Z,26.90
2018-08-22T18:29:57.010Z,26.82
2018-08-22T18:32:25.796Z,26.83
2018-08-22T18:35:16.495Z,26.69
2018-08-22T18:37:45.507Z,26.65
2018-08-22T18:40:18.065Z,26.62
2018-08-22T18:42:51.357Z,26.50
2018-08-22T18:45:20.965Z,26.34
2018-08-22T18:47:49.911Z,26.38
2018-08-22T18:50:19.120Z,26.27
2018-08-22T18:52:50.517Z,26.09
2018-08-22T18:55:20.999Z,26.09
2018-08-22T18:57:50.102Z,26.20
2018-08-22T19:00:18.884Z,26.12
2018-08-22T19:02:49.490Z,26.06
2018-08-22T19:05:25.402Z,26.09
2018-08-22T19:08:00.760Z,25.96
2018-08-22T19:10:34.746Z,25.85
2018-08-22T19:13:08.940Z,25.69
2018-08-22T19:15:38.380Z,25.55
2018-08-22T19:18:08.610Z,25.64
2018-08-22T19:20:37.767Z,25.38
2018-08-22T19:23:06.768Z,25.41
2018-08-22T19:25:35.825Z,25.34
2018-08-22T19:28:04.850Z,25.16
2018-08-22T19:30:37.446Z,25.22
2018-08-22T19:33:10.163Z,25.06
2018-08-22T19:35:39.264Z,24.93
2018-08-22T19:38:08.643Z,24.90
2018-08-22T19:40:38.017Z,24.88
2018-08-22T19:43:06.763Z,25.03
2018-08-22T19:45:36.098Z,25.08
2018-08-22T19:48:05.178Z,25.06
2018-08-22T19:50:34.096Z,24.91
2018-08-22T19:53:03.134Z,24.88
2018-08-22T19:55:32.759Z,24.91
2018-08-22T19:58:02.023Z,24.89
2018-08-22T20:00:31.171Z,24.91
2018-08-22T20:03:00.203Z,24.81
2018-08-22T20:05:41.862Z,24.68
2018-08-22T20:08:10.999Z,24.71
2018-08-22T20:10:40.299Z,24.53
2018-08-22T20:13:09.274Z,24.63
2018-08-22T20:15:38.017Z,24.51
2018-08-22T20:18:06.794Z,24.50
2018-08-22T20:20:35.820Z,24.39
2018-08-22T20:23:04.585Z,24.43
2018-08-22T20:25:33.640Z,24.42
2018-08-22T20:28:02.507Z,24.38
2018-08-22T20:30:31.679Z,24.38
2018-08-22T20:33:06.856Z,24.22
2018-08-22T20:35:38.768Z,24.33
2018-08-22T20:38:10.818Z,24.17
2018-08-22T20:40:39.614Z,24.22
2018-08-22T20:43:15.147Z,24.14
2018-08-22T20:45:45.069Z,24.31
2018-08-22T20:48:14.822Z,24.14
2018-08-22T20:50:44.666Z,24.08
2018-08-22T20:53:15.398Z,24.05
2018-08-22T20:55:44.477Z,24.03
2018-08-22T20:58:30.806Z,24.04
2018-08-22T21:01:00.443Z,24.06
2018-08-22T21:03:29.397Z,24.30
2018-08-22T21:05:58.312Z,24.34
2018-08-22T21:08:27.559Z,24.35
2018-08-22T21:10:56.327Z,24.29
2018-08-22T21:13:28.509Z,24.24
2018-08-22T21:15:57.795Z,24.16
2018-08-22T21:18:26.888Z,24.06
2018-08-22T21:20:55.767Z,23.94
2018-08-22T21:23:24.475Z,23.98
2018-08-22T21:25:53.118Z,23.90
2018-08-22T21:28:26.774Z,23.80
2018-08-22T21:31:00.954Z,23.71
2018-08-22T21:33:30.942Z,23.54
2018-08-22T21:36:00.002Z,23.67
2018-08-22T21:38:28.830Z,23.65
2018-08-22T21:40:57.871Z,23.59
2018-08-22T21:43:26.763Z,23.53
2018-08-22T21:45:55.848Z,23.40
2018-08-22T21:48:26.400Z,23.36
2018-08-22T21:50:55.290Z,23.41
2018-08-22T21:53:24.114Z,23.35
2018-08-22T21:55:53.553Z,23.37
2018-08-22T21:58:22.218Z,23.40
2018-08-22T22:00:50.900Z,23.48
2018-08-22T22:03:24.939Z,23.38
2018-08-22T22:05:59.292Z,23.41
2018-08-22T22:08:28.339Z,23.42
2018-08-22T22:11:01.098Z,23.39
2018-08-22T22:13:30.421Z,23.44
2018-08-22T22:16:00.358Z,23.43
2018-08-22T22:18:30.954Z,23.41
2018-08-22T22:21:13.217Z,23.52
2018-08-22T22:23:46.511Z,23.43
2018-08-22T22:26:16.754Z,23.50
2018-08-22T22:28:45.680Z,23.55
2018-08-22T22:31:15.535Z,23.56
2018-08-22T22:33:48.211Z,23.57
2018-08-22T22:36:17.343Z,23.36
2018-08-22T22:38:46.508Z,23.52
2018-08-22T22:41:15.511Z,23.39
2018-08-22T22:43:44.519Z,23.31
2018-08-22T22:46:13.338Z,23.33
2018-08-22T22:48:43.651Z,23.29
2018-08-22T22:51:12.520Z,23.41
2018-08-22T22:53:41.390Z,23.25
2018-08-22T22:56:10.398Z,23.31
2018-08-22T22:58:39.219Z,23.35
2018-08-22T23:01:08.411Z,23.17
2018-08-22T23:03:37.329Z,23.05
2018-08-22T23:06:05.769Z,23.06
2018-08-22T23:08:34.570Z,23.02
2018-08-22T23:11:03.299Z,23.01
2018-08-22T23:13:32.493Z,23.01
2018-08-22T23:16:01.781Z,22.88
2018-08-22T23:18:30.808Z,22.70
2018-08-22T23:21:00.255Z,22.75
2018-08-22T23:23:31.434Z,22.58
2018-08-22T23:26:07.034Z,22.52
2018-08-22T23:28:35.761Z,22.56
2018-08-22T23:31:04.687Z,22.48
2018-08-22T23:33:33.640Z,22.50
2018-08-22T23:36:02.586Z,22.58
2018-08-22T23:38:33.287Z,22.70
2018-08-22T23:41:03.438Z,22.56
2018-08-22T23:43:39.050Z,22.40
2018-08-22T23:46:09.201Z,22.52
2018-08-22T23:48:38.684Z,22.46
2018-08-22T23:51:09.493Z,22.37
2018-08-22T23:53:43.485Z,22.28
2018-08-22T23:56:20.500Z,22.17
2018-08-22T23:58:50.155Z,22.18
